sensor_id;sensor_type;location;lat;lon;timestamp;temperature;humidity
8214;DHT22;4148;47.974;7.824;2023-02-15T00:01:49;-0.30;99.90
8214;DHT22;4148;47.974;7.824;2023-02-15T00:04:21;-0.30;99.90
8214;DHT22;4148;47.974;7.824;2023-02-15T00:06:50;-0.40;99.90
8214;DHT22;4148;47.974;7.824;2023-02-15T00:09:19;-0.30;99.90
8214;DHT22;4148;47.974;7.824;2023-02-15T00:11:47;-0.40;99.90
8214;DHT22;4148;47.974;7.824;2023-02-15T00:14:18;-0.50;99.90
8214;DHT22;4148;47.974;7.824;2023-02-15T00:16:48;-0.50;99.90
8214;DHT22;4148;47.974;7.824;2023-02-15T00:19:18;-0.60;99.90
8214;DHT22;4148;47.974;7.824;2023-02-15T00:21:47;-0.60;99.90
8214;DHT22;4148;47.974;7.824;2023-02-15T00:24:17;-0.50;99.90
8214;DHT22;4148;47.974;7.824;2023-02-15T00:26:47;-0.50;99.90
8214;DHT22;4148;47.974;7.824;2023-02-15T00:29:16;-0.50;99.90
8214;DHT22;4148;47.974;7.824;2023-02-15T00:31:45;-0.40;99.90
8214;DHT22;4148;47.974;7.824;2023-02-15T00:34:14;-0.30;99.90
8214;DHT22;4148;47.974;7.824;2023-02-15T00:36:43;-0.50;99.90
8214;DHT22;4148;47.974;7.824;2023-02-15T00:39:11;-0.60;99.90
8214;DHT22;4148;47.974;7.824;2023-02-15T00:41:40;-0.60;99.90
8214;DHT22;4148;47.974;7.824;2023-02-15T00:44:09;-0.60;99.90
8214;DHT22;4148;47.974;7.824;2023-02-15T00:46:37;-0.50;99.90
8214;DHT22;4148;47.974;7.824;2023-02-15T00:49:05;-0.50;99.90
8214;DHT22;4148;47.974;7.824;2023-02-15T00:51:33;-0.60;99.90
8214;DHT22;4148;47.974;7.824;2023-02-15T00:54:01;-0.60;99.90
8214;DHT22;4148;47.974;7.824;2023-02-15T00:56:29;-0.50;99.90
8214;DHT22;4148;47.974;7.824;2023-02-15T00:58:57;-0.40;99.90
8214;DHT22;4148;47.974;7.824;2023-02-15T01:01:26;-0.50;99.90
8214;DHT22;4148;47.974;7.824;2023-02-15T01:03:54;-0.60;99.90
8214;DHT22;4148;47.974;7.824;2023-02-15T01:06:22;-0.50;99.90
8214;DHT22;4148;47.974;7.824;2023-02-15T01:08:49;-0.70;99.90
8214;DHT22;4148;47.974;7.824;2023-02-15T01:11:19;-0.80;99.90
8214;DHT22;4148;47.974;7.824;2023-02-15T01:13:49;-0.80;99.90
8214;DHT22;4148;47.974;7.824;2023-02-15T01:16:18;-0.80;99.90
8214;DHT22;4148;47.974;7.824;2023-02-15T01:18:47;-1.00;99.90
8214;DHT22;4148;47.974;7.824;2023-02-15T01:21:16;-1.10;99.90
8214;DHT22;4148;47.974;7.824;2023-02-15T01:23:44;-1.10;99.90
8214;DHT22;4148;47.974;7.824;2023-02-15T01:26:13;-1.20;99.90
8214;DHT22;4148;47.974;7.824;2023-02-15T01:28:41;-1.20;99.90
8214;DHT22;4148;47.974;7.824;2023-02-15T01:31:10;-1.20;99.90
8214;DHT22;4148;47.974;7.824;2023-02-15T01:33:39;-1.10;99.90
8214;DHT22;4148;47.974;7.824;2023-02-15T01:36:08;-1.10;99.90
8214;DHT22;4148;47.974;7.824;2023-02-15T01:38:36;-1.00;99.90
8214;DHT22;4148;47.974;7.824;2023-02-15T01:41:04;-1.00;99.90
8214;DHT22;4148;47.974;7.824;2023-02-15T01:43:51;-1.00;99.90
8214;DHT22;4148;47.974;7.824;2023-02-15T01:46:23;-0.80;99.90
8214;DHT22;4148;47.974;7.824;2023-02-15T01:48:58;-0.60;99.90
8214;DHT22;4148;47.974;7.824;2023-02-15T01:51:31;-0.80;99.90
8214;DHT22;4148;47.974;7.824;2023-02-15T01:54:04;-0.80;99.90
8214;DHT22;4148;47.974;7.824;2023-02-15T01:56:35;-0.80;99.90
8214;DHT22;4148;47.974;7.824;2023-02-15T01:59:06;-0.90;99.90
8214;DHT22;4148;47.974;7.824;2023-02-15T02:01:35;-1.00;99.90
8214;DHT22;4148;47.974;7.824;2023-02-15T02:04:09;-1.00;99.90
8214;DHT22;4148;47.974;7.824;2023-02-15T02:06:40;-1.00;99.90
8214;DHT22;4148;47.974;7.824;2023-02-15T02:09:08;-1.00;99.90
8214;DHT22;4148;47.974;7.824;2023-02-15T02:11:38;-1.00;99.90
8214;DHT22;4148;47.974;7.824;2023-02-15T02:14:06;-0.80;99.90
8214;DHT22;4148;47.974;7.824;2023-02-15T02:16:39;-0.70;99.90
8214;DHT22;4148;47.974;7.824;2023-02-15T02:19:28;-0.70;99.90
8214;DHT22;4148;47.974;7.824;2023-02-15T02:25:38;-0.30;99.90
8214;DHT22;4148;47.974;7.824;2023-02-15T02:28:25;-0.50;99.90
8214;DHT22;4148;47.974;7.824;2023-02-15T02:31:23;-0.80;99.90
8214;DHT22;4148;47.974;7.824;2023-02-15T02:34:01;-0.90;99.90
8214;DHT22;4148;47.974;7.824;2023-02-15T02:36:35;-0.90;99.90
8214;DHT22;4148;47.974;7.824;2023-02-15T02:39:14;-0.90;99.90
8214;DHT22;4148;47.974;7.824;2023-02-15T02:41:52;-0.90;99.90
8214;DHT22;4148;47.974;7.824;2023-02-15T02:44:24;-0.80;99.90
8214;DHT22;4148;47.974;7.824;2023-02-15T02:46:56;-0.60;99.90
8214;DHT22;4148;47.974;7.824;2023-02-15T02:49:32;-0.60;99.90
8214;DHT22;4148;47.974;7.824;2023-02-15T02:52:00;-0.80;99.90
8214;DHT22;4148;47.974;7.824;2023-02-15T02:54:29;-0.80;99.90
8214;DHT22;4148;47.974;7.824;2023-02-15T02:56:59;-0.90;99.90
8214;DHT22;4148;47.974;7.824;2023-02-15T02:59:32;-0.80;99.90
8214;DHT22;4148;47.974;7.824;2023-02-15T03:02:04;-0.70;99.90
8214;DHT22;4148;47.974;7.824;2023-02-15T03:04:37;-0.60;99.90
8214;DHT22;4148;47.974;7.824;2023-02-15T03:07:09;-0.70;99.90
8214;DHT22;4148;47.974;7.824;2023-02-15T03:09:40;-0.90;99.90
8214;DHT22;4148;47.974;7.824;2023-02-15T03:12:11;-0.90;99.90
8214;DHT22;4148;47.974;7.824;2023-02-15T03:14:42;-1.00;99.90
8214;DHT22;4148;47.974;7.824;2023-02-15T03:17:12;-1.00;99.90
8214;DHT22;4148;47.974;7.824;2023-02-15T03:19:45;-0.90;99.90
8214;DHT22;4148;47.974;7.824;2023-02-15T03:22:17;-0.90;99.90
8214;DHT22;4148;47.974;7.824;2023-02-15T03:24:51;-0.80;99.90
8214;DHT22;4148;47.974;7.824;2023-02-15T03:27:23;-0.60;99.90
8214;DHT22;4148;47.974;7.824;2023-02-15T03:29:54;-0.40;99.90
8214;DHT22;4148;47.974;7.824;2023-02-15T03:32:23;-0.40;99.90
8214;DHT22;4148;47.974;7.824;2023-02-15T03:34:54;-0.50;99.90
8214;DHT22;4148;47.974;7.824;2023-02-15T03:37:26;-0.80;99.90
8214;DHT22;4148;47.974;7.824;2023-02-15T03:39:58;-0.90;99.90
8214;DHT22;4148;47.974;7.824;2023-02-15T03:42:51;-0.90;99.90
8214;DHT22;4148;47.974;7.824;2023-02-15T03:45:24;-1.20;99.90
8214;DHT22;4148;47.974;7.824;2023-02-15T03:47:56;-1.10;99.90
8214;DHT22;4148;47.974;7.824;2023-02-15T03:50:28;-1.00;99.90
8214;DHT22;4148;47.974;7.824;2023-02-15T03:53:16;-1.10;99.90
8214;DHT22;4148;47.974;7.824;2023-02-15T03:55:48;-1.20;99.90
8214;DHT22;4148;47.974;7.824;2023-02-15T03:58:16;-1.20;99.90
8214;DHT22;4148;47.974;7.824;2023-02-15T04:01:09;-1.20;99.90
8214;DHT22;4148;47.974;7.824;2023-02-15T04:04:01;-1.20;99.90
8214;DHT22;4148;47.974;7.824;2023-02-15T04:06:31;-1.00;99.90
8214;DHT22;4148;47.974;7.824;2023-02-15T04:08:59;-0.90;99.90
8214;DHT22;4148;47.974;7.824;2023-02-15T04:11:45;-0.80;99.90
8214;DHT22;4148;47.974;7.824;2023-02-15T04:14:12;-1.00;99.90
8214;DHT22;4148;47.974;7.824;2023-02-15T04:16:58;-0.90;99.90
8214;DHT22;4148;47.974;7.824;2023-02-15T04:19:26;-1.10;99.90
8214;DHT22;4148;47.974;7.824;2023-02-15T04:22:12;-1.10;99.90
8214;DHT22;4148;47.974;7.824;2023-02-15T04:24:58;-1.10;99.90
8214;DHT22;4148;47.974;7.824;2023-02-15T04:27:40;-1.00;99.90
8214;DHT22;4148;47.974;7.824;2023-02-15T04:30:09;-0.80;99.90
8214;DHT22;4148;47.974;7.824;2023-02-15T04:32:37;-0.80;99.90
8214;DHT22;4148;47.974;7.824;2023-02-15T04:35:06;-1.00;99.90
8214;DHT22;4148;47.974;7.824;2023-02-15T04:37:35;-1.00;99.90
8214;DHT22;4148;47.974;7.824;2023-02-15T04:40:04;-1.20;99.90
8214;DHT22;4148;47.974;7.824;2023-02-15T04:42:32;-1.20;99.90
8214;DHT22;4148;47.974;7.824;2023-02-15T04:45:00;-1.30;99.90
8214;DHT22;4148;47.974;7.824;2023-02-15T04:47:28;-1.30;99.90
8214;DHT22;4148;47.974;7.824;2023-02-15T04:49:56;-1.20;99.90
8214;DHT22;4148;47.974;7.824;2023-02-15T04:52:24;-1.10;99.90
8214;DHT22;4148;47.974;7.824;2023-02-15T04:54:53;-1.10;99.90
8214;DHT22;4148;47.974;7.824;2023-02-15T04:57:21;-1.30;99.90
8214;DHT22;4148;47.974;7.824;2023-02-15T04:59:49;-1.30;99.90
8214;DHT22;4148;47.974;7.824;2023-02-15T05:02:16;-1.50;99.90
8214;DHT22;4148;47.974;7.824;2023-02-15T05:04:44;-1.70;99.90
8214;DHT22;4148;47.974;7.824;2023-02-15T05:07:12;-1.70;99.90
8214;DHT22;4148;47.974;7.824;2023-02-15T05:09:41;-1.80;99.90
8214;DHT22;4148;47.974;7.824;2023-02-15T05:12:10;-1.70;99.90
8214;DHT22;4148;47.974;7.824;2023-02-15T05:14:38;-1.70;99.90
8214;DHT22;4148;47.974;7.824;2023-02-15T05:17:06;-1.80;99.90
8214;DHT22;4148;47.974;7.824;2023-02-15T05:19:33;-1.70;99.90
8214;DHT22;4148;47.974;7.824;2023-02-15T05:22:01;-1.70;99.90
8214;DHT22;4148;47.974;7.824;2023-02-15T05:24:29;-1.60;99.90
8214;DHT22;4148;47.974;7.824;2023-02-15T05:27:15;-1.50;99.90
8214;DHT22;4148;47.974;7.824;2023-02-15T05:30:01;-1.30;99.90
8214;DHT22;4148;47.974;7.824;2023-02-15T05:32:29;-1.40;99.90
8214;DHT22;4148;47.974;7.824;2023-02-15T05:34:57;-1.40;99.90
8214;DHT22;4148;47.974;7.824;2023-02-15T05:37:25;-1.40;99.90
8214;DHT22;4148;47.974;7.824;2023-02-15T05:39:52;-1.60;99.90
8214;DHT22;4148;47.974;7.824;2023-02-15T05:42:22;-1.50;99.90
8214;DHT22;4148;47.974;7.824;2023-02-15T05:44:49;-1.40;99.90
8214;DHT22;4148;47.974;7.824;2023-02-15T05:47:17;-1.40;99.90
8214;DHT22;4148;47.974;7.824;2023-02-15T05:49:45;-1.40;99.90
8214;DHT22;4148;47.974;7.824;2023-02-15T05:52:13;-1.60;99.90
8214;DHT22;4148;47.974;7.824;2023-02-15T05:54:41;-1.50;99.90
8214;DHT22;4148;47.974;7.824;2023-02-15T05:57:09;-1.40;99.90
8214;DHT22;4148;47.974;7.824;2023-02-15T05:59:38;-1.50;99.90
8214;DHT22;4148;47.974;7.824;2023-02-15T06:02:06;-1.50;99.90
8214;DHT22;4148;47.974;7.824;2023-02-15T06:04:34;-1.60;99.90
8214;DHT22;4148;47.974;7.824;2023-02-15T06:07:01;-1.60;99.90
8214;DHT22;4148;47.974;7.824;2023-02-15T06:09:29;-1.50;99.90
8214;DHT22;4148;47.974;7.824;2023-02-15T06:11:57;-1.50;99.90
8214;DHT22;4148;47.974;7.824;2023-02-15T06:14:25;-1.50;99.90
8214;DHT22;4148;47.974;7.824;2023-02-15T06:16:54;-1.30;99.90
8214;DHT22;4148;47.974;7.824;2023-02-15T06:19:22;-1.40;99.90
8214;DHT22;4148;47.974;7.824;2023-02-15T06:21:49;-1.50;99.90
8214;DHT22;4148;47.974;7.824;2023-02-15T06:24:17;-1.50;99.90
8214;DHT22;4148;47.974;7.824;2023-02-15T06:26:45;-1.40;99.90
8214;DHT22;4148;47.974;7.824;2023-02-15T06:29:13;-1.60;99.90
8214;DHT22;4148;47.974;7.824;2023-02-15T06:31:41;-1.70;99.90
8214;DHT22;4148;47.974;7.824;2023-02-15T06:34:10;-1.70;99.90
8214;DHT22;4148;47.974;7.824;2023-02-15T06:36:38;-1.80;99.90
8214;DHT22;4148;47.974;7.824;2023-02-15T06:39:05;-1.70;99.90
8214;DHT22;4148;47.974;7.824;2023-02-15T06:41:33;-1.60;99.90
8214;DHT22;4148;47.974;7.824;2023-02-15T06:44:01;-1.70;99.90
8214;DHT22;4148;47.974;7.824;2023-02-15T06:46:29;-1.70;99.90
8214;DHT22;4148;47.974;7.824;2023-02-15T06:48:57;-1.70;99.90
8214;DHT22;4148;47.974;7.824;2023-02-15T06:51:26;-1.70;99.90
8214;DHT22;4148;47.974;7.824;2023-02-15T06:53:54;-1.70;99.90
8214;DHT22;4148;47.974;7.824;2023-02-15T06:56:22;-1.60;99.90
8214;DHT22;4148;47.974;7.824;2023-02-15T06:58:49;-1.60;99.90
8214;DHT22;4148;47.974;7.824;2023-02-15T07:01:19;-1.70;99.90
8214;DHT22;4148;47.974;7.824;2023-02-15T07:03:46;-1.60;99.90
8214;DHT22;4148;47.974;7.824;2023-02-15T07:06:14;-1.60;99.90
8214;DHT22;4148;47.974;7.824;2023-02-15T07:08:43;-1.60;99.90
8214;DHT22;4148;47.974;7.824;2023-02-15T07:11:11;-1.60;99.90
8214;DHT22;4148;47.974;7.824;2023-02-15T07:13:57;-1.60;99.90
8214;DHT22;4148;47.974;7.824;2023-02-15T07:16:24;-1.80;99.90
8214;DHT22;4148;47.974;7.824;2023-02-15T07:18:52;-1.70;99.90
8214;DHT22;4148;47.974;7.824;2023-02-15T07:21:20;-1.80;99.90
8214;DHT22;4148;47.974;7.824;2023-02-15T07:23:49;-1.60;99.90
8214;DHT22;4148;47.974;7.824;2023-02-15T07:26:17;-1.50;99.90
8214;DHT22;4148;47.974;7.824;2023-02-15T07:28:45;-1.50;99.90
8214;DHT22;4148;47.974;7.824;2023-02-15T07:31:12;-1.50;99.90
8214;DHT22;4148;47.974;7.824;2023-02-15T07:33:40;-1.40;99.90
8214;DHT22;4148;47.974;7.824;2023-02-15T07:36:09;-1.30;99.90
8214;DHT22;4148;47.974;7.824;2023-02-15T07:38:39;-1.20;99.90
8214;DHT22;4148;47.974;7.824;2023-02-15T07:41:10;-1.40;99.90
8214;DHT22;4148;47.974;7.824;2023-02-15T07:43:40;-1.30;99.90
8214;DHT22;4148;47.974;7.824;2023-02-15T07:46:11;-1.10;99.90
8214;DHT22;4148;47.974;7.824;2023-02-15T07:48:41;-1.00;99.90
8214;DHT22;4148;47.974;7.824;2023-02-15T07:51:11;-1.00;99.90
8214;DHT22;4148;47.974;7.824;2023-02-15T07:53:39;-0.90;99.90
8214;DHT22;4148;47.974;7.824;2023-02-15T07:56:11;-0.90;99.90
8214;DHT22;4148;47.974;7.824;2023-02-15T07:58:39;-1.00;99.90
8214;DHT22;4148;47.974;7.824;2023-02-15T08:01:23;-0.90;99.90
8214;DHT22;4148;47.974;7.824;2023-02-15T08:03:51;-1.00;99.90
8214;DHT22;4148;47.974;7.824;2023-02-15T08:06:21;-0.90;99.90
8214;DHT22;4148;47.974;7.824;2023-02-15T08:08:49;-0.70;99.90
8214;DHT22;4148;47.974;7.824;2023-02-15T08:11:20;-0.80;99.90
8214;DHT22;4148;47.974;7.824;2023-02-15T08:13:57;-0.80;99.90
8214;DHT22;4148;47.974;7.824;2023-02-15T08:16:29;-0.70;99.90
8214;DHT22;4148;47.974;7.824;2023-02-15T08:18:59;-0.50;99.90
8214;DHT22;4148;47.974;7.824;2023-02-15T08:21:28;-0.40;99.90
8214;DHT22;4148;47.974;7.824;2023-02-15T08:23:56;-0.30;99.90
8214;DHT22;4148;47.974;7.824;2023-02-15T08:26:27;-0.40;99.90
8214;DHT22;4148;47.974;7.824;2023-02-15T08:28:55;-0.20;99.90
8214;DHT22;4148;47.974;7.824;2023-02-15T08:31:23;0.00;99.90
8214;DHT22;4148;47.974;7.824;2023-02-15T08:33:52;-0.10;99.90
8214;DHT22;4148;47.974;7.824;2023-02-15T08:36:22;-0.20;99.90
8214;DHT22;4148;47.974;7.824;2023-02-15T08:38:50;-0.20;99.90
8214;DHT22;4148;47.974;7.824;2023-02-15T08:41:20;-0.30;99.90
8214;DHT22;4148;47.974;7.824;2023-02-15T08:43:51;-0.40;99.90
8214;DHT22;4148;47.974;7.824;2023-02-15T08:46:21;-0.30;99.90
8214;DHT22;4148;47.974;7.824;2023-02-15T08:48:50;-0.20;99.90
8214;DHT22;4148;47.974;7.824;2023-02-15T08:51:19;-0.30;99.90
8214;DHT22;4148;47.974;7.824;2023-02-15T08:53:50;-0.20;99.90
8214;DHT22;4148;47.974;7.824;2023-02-15T08:56:21;-0.10;99.90
8214;DHT22;4148;47.974;7.824;2023-02-15T08:58:51;0.00;99.90
8214;DHT22;4148;47.974;7.824;2023-02-15T09:01:21;0.10;99.90
8214;DHT22;4148;47.974;7.824;2023-02-15T09:03:51;0.20;99.90
8214;DHT22;4148;47.974;7.824;2023-02-15T09:06:21;0.20;99.90
8214;DHT22;4148;47.974;7.824;2023-02-15T09:08:50;0.40;99.90
8214;DHT22;4148;47.974;7.824;2023-02-15T09:11:20;0.40;99.90
8214;DHT22;4148;47.974;7.824;2023-02-15T09:13:53;0.60;99.90
8214;DHT22;4148;47.974;7.824;2023-02-15T09:16:23;0.80;99.90
8214;DHT22;4148;47.974;7.824;2023-02-15T09:18:53;0.90;99.90
8214;DHT22;4148;47.974;7.824;2023-02-15T09:21:22;1.20;99.90
8214;DHT22;4148;47.974;7.824;2023-02-15T09:23:56;1.10;99.90
8214;DHT22;4148;47.974;7.824;2023-02-15T09:26:27;1.10;99.90
8214;DHT22;4148;47.974;7.824;2023-02-15T09:28:59;1.20;99.90
8214;DHT22;4148;47.974;7.824;2023-02-15T09:31:29;1.30;99.90
8214;DHT22;4148;47.974;7.824;2023-02-15T09:33:58;1.20;99.90
8214;DHT22;4148;47.974;7.824;2023-02-15T09:36:29;1.30;99.90
8214;DHT22;4148;47.974;7.824;2023-02-15T09:38:58;1.50;99.90
8214;DHT22;4148;47.974;7.824;2023-02-15T09:41:50;1.50;99.90
8214;DHT22;4148;47.974;7.824;2023-02-15T09:44:36;1.40;99.90
8214;DHT22;4148;47.974;7.824;2023-02-15T09:47:24;1.30;99.90
8214;DHT22;4148;47.974;7.824;2023-02-15T09:50:01;1.00;99.90
8214;DHT22;4148;47.974;7.824;2023-02-15T09:52:54;1.00;99.90
8214;DHT22;4148;47.974;7.824;2023-02-15T09:55:42;1.20;99.90
8214;DHT22;4148;47.974;7.824;2023-02-15T09:58:20;1.30;99.90
8214;DHT22;4148;47.974;7.824;2023-02-15T10:00:59;1.20;99.90
8214;DHT22;4148;47.974;7.824;2023-02-15T10:03:39;1.40;99.90
8214;DHT22;4148;47.974;7.824;2023-02-15T10:06:29;1.50;99.90
8214;DHT22;4148;47.974;7.824;2023-02-15T10:09:23;1.70;99.90
8214;DHT22;4148;47.974;7.824;2023-02-15T10:12:18;1.60;99.90
8214;DHT22;4148;47.974;7.824;2023-02-15T10:15:17;1.70;99.90
8214;DHT22;4148;47.974;7.824;2023-02-15T10:18:09;1.60;99.90
8214;DHT22;4148;47.974;7.824;2023-02-15T10:20:52;1.80;99.90
8214;DHT22;4148;47.974;7.824;2023-02-15T10:23:36;1.70;99.90
8214;DHT22;4148;47.974;7.824;2023-02-15T10:26:12;2.00;99.90
8214;DHT22;4148;47.974;7.824;2023-02-15T10:28:48;2.10;99.90
8214;DHT22;4148;47.974;7.824;2023-02-15T10:31:23;2.10;99.90
8214;DHT22;4148;47.974;7.824;2023-02-15T10:34:14;2.40;99.90
8214;DHT22;4148;47.974;7.824;2023-02-15T10:39:45;3.00;99.90
8214;DHT22;4148;47.974;7.824;2023-02-15T10:42:23;3.40;99.90
8214;DHT22;4148;47.974;7.824;2023-02-15T10:45:12;3.60;99.90
8214;DHT22;4148;47.974;7.824;2023-02-15T10:48:01;3.40;99.90
8214;DHT22;4148;47.974;7.824;2023-02-15T10:50:46;3.30;99.90
8214;DHT22;4148;47.974;7.824;2023-02-15T10:53:30;3.40;99.90
8214;DHT22;4148;47.974;7.824;2023-02-15T10:56:08;3.80;99.90
8214;DHT22;4148;47.974;7.824;2023-02-15T10:58:51;3.60;99.90
8214;DHT22;4148;47.974;7.824;2023-02-15T11:01:27;3.60;99.90
8214;DHT22;4148;47.974;7.824;2023-02-15T11:07:03;4.10;99.90
8214;DHT22;4148;47.974;7.824;2023-02-15T11:09:37;4.40;99.90
8214;DHT22;4148;47.974;7.824;2023-02-15T11:12:10;5.10;99.90
8214;DHT22;4148;47.974;7.824;2023-02-15T11:14:43;5.80;99.90
8214;DHT22;4148;47.974;7.824;2023-02-15T11:17:14;6.10;99.90
8214;DHT22;4148;47.974;7.824;2023-02-15T11:19:51;6.60;99.90
8214;DHT22;4148;47.974;7.824;2023-02-15T11:22:23;7.10;99.90
8214;DHT22;4148;47.974;7.824;2023-02-15T11:24:51;7.80;99.90
8214;DHT22;4148;47.974;7.824;2023-02-15T11:27:22;8.10;99.90
8214;DHT22;4148;47.974;7.824;2023-02-15T11:29:58;8.60;99.90
8214;DHT22;4148;47.974;7.824;2023-02-15T11:32:29;9.00;99.90
8214;DHT22;4148;47.974;7.824;2023-02-15T11:35:01;9.30;99.90
8214;DHT22;4148;47.974;7.824;2023-02-15T11:37:36;9.80;99.90
8214;DHT22;4148;47.974;7.824;2023-02-15T11:40:21;9.90;99.90
8214;DHT22;4148;47.974;7.824;2023-02-15T11:42:53;9.90;99.90
8214;DHT22;4148;47.974;7.824;2023-02-15T11:45:26;10.00;99.90
8214;DHT22;4148;47.974;7.824;2023-02-15T11:47:56;10.80;99.90
8214;DHT22;4148;47.974;7.824;2023-02-15T11:50:27;10.50;99.90
8214;DHT22;4148;47.974;7.824;2023-02-15T11:52:59;9.80;99.90
8214;DHT22;4148;47.974;7.824;2023-02-15T11:55:29;9.60;99.90
8214;DHT22;4148;47.974;7.824;2023-02-15T11:58:00;10.10;99.90
8214;DHT22;4148;47.974;7.824;2023-02-15T12:00:33;9.80;99.90
8214;DHT22;4148;47.974;7.824;2023-02-15T12:03:13;9.10;99.90
8214;DHT22;4148;47.974;7.824;2023-02-15T12:05:45;9.00;99.90
8214;DHT22;4148;47.974;7.824;2023-02-15T12:08:18;9.60;99.90
8214;DHT22;4148;47.974;7.824;2023-02-15T12:10:57;9.30;99.90
8214;DHT22;4148;47.974;7.824;2023-02-15T12:13:26;9.70;99.90
8214;DHT22;4148;47.974;7.824;2023-02-15T12:15:56;9.20;99.90
8214;DHT22;4148;47.974;7.824;2023-02-15T12:18:34;9.20;99.90
8214;DHT22;4148;47.974;7.824;2023-02-15T12:21:06;9.70;99.90
8214;DHT22;4148;47.974;7.824;2023-02-15T12:23:43;9.90;99.90
8214;DHT22;4148;47.974;7.824;2023-02-15T12:26:14;9.50;99.90
8214;DHT22;4148;47.974;7.824;2023-02-15T12:28:44;9.30;99.90
8214;DHT22;4148;47.974;7.824;2023-02-15T12:31:21;9.40;99.90
8214;DHT22;4148;47.974;7.824;2023-02-15T12:33:52;8.90;99.90
8214;DHT22;4148;47.974;7.824;2023-02-15T12:36:22;8.80;99.90
8214;DHT22;4148;47.974;7.824;2023-02-15T12:39:21;8.90;99.90
8214;DHT22;4148;47.974;7.824;2023-02-15T12:42:03;8.80;99.90
8214;DHT22;4148;47.974;7.824;2023-02-15T12:44:32;8.50;99.90
8214;DHT22;4148;47.974;7.824;2023-02-15T12:47:03;8.20;99.90
8214;DHT22;4148;47.974;7.824;2023-02-15T12:49:32;8.40;99.90
8214;DHT22;4148;47.974;7.824;2023-02-15T12:52:01;8.20;99.90
8214;DHT22;4148;47.974;7.824;2023-02-15T12:54:39;8.40;99.90
8214;DHT22;4148;47.974;7.824;2023-02-15T12:57:28;8.30;99.90
8214;DHT22;4148;47.974;7.824;2023-02-15T13:00:01;8.30;99.90
8214;DHT22;4148;47.974;7.824;2023-02-15T13:02:36;8.30;99.90
8214;DHT22;4148;47.974;7.824;2023-02-15T13:05:18;8.30;99.90
8214;DHT22;4148;47.974;7.824;2023-02-15T13:07:53;8.30;99.90
8214;DHT22;4148;47.974;7.824;2023-02-15T13:10:28;8.30;99.90
8214;DHT22;4148;47.974;7.824;2023-02-15T13:12:57;8.00;99.90
8214;DHT22;4148;47.974;7.824;2023-02-15T13:15:28;7.90;99.90
8214;DHT22;4148;47.974;7.824;2023-02-15T13:17:59;7.80;99.90
8214;DHT22;4148;47.974;7.824;2023-02-15T13:20:29;7.80;99.90
8214;DHT22;4148;47.974;7.824;2023-02-15T13:23:03;7.60;99.90
8214;DHT22;4148;47.974;7.824;2023-02-15T13:25:44;7.60;99.90
8214;DHT22;4148;47.974;7.824;2023-02-15T13:28:19;7.50;99.90
8214;DHT22;4148;47.974;7.824;2023-02-15T13:30:48;7.40;99.90
8214;DHT22;4148;47.974;7.824;2023-02-15T13:33:25;7.50;99.90
8214;DHT22;4148;47.974;7.824;2023-02-15T13:36:02;7.50;99.90
8214;DHT22;4148;47.974;7.824;2023-02-15T13:38:55;7.50;99.90
8214;DHT22;4148;47.974;7.824;2023-02-15T13:41:30;7.40;99.90
8214;DHT22;4148;47.974;7.824;2023-02-15T13:44:09;7.50;99.90
8214;DHT22;4148;47.974;7.824;2023-02-15T13:46:55;7.50;99.90
8214;DHT22;4148;47.974;7.824;2023-02-15T13:49:36;7.50;99.90
8214;DHT22;4148;47.974;7.824;2023-02-15T13:52:19;7.50;99.90
8214;DHT22;4148;47.974;7.824;2023-02-15T13:54:57;7.50;99.90
8214;DHT22;4148;47.974;7.824;2023-02-15T13:57:55;7.40;99.90
8214;DHT22;4148;47.974;7.824;2023-02-15T14:00:29;7.50;99.90
8214;DHT22;4148;47.974;7.824;2023-02-15T14:05:57;7.50;99.90
8214;DHT22;4148;47.974;7.824;2023-02-15T14:08:48;7.60;99.90
8214;DHT22;4148;47.974;7.824;2023-02-15T14:11:23;7.60;99.90
8214;DHT22;4148;47.974;7.824;2023-02-15T14:14:15;7.60;99.90
8214;DHT22;4148;47.974;7.824;2023-02-15T14:16:55;7.60;99.90
8214;DHT22;4148;47.974;7.824;2023-02-15T14:19:39;7.70;99.90
8214;DHT22;4148;47.974;7.824;2023-02-15T14:22:18;7.70;99.90
8214;DHT22;4148;47.974;7.824;2023-02-15T14:24:59;7.80;99.90
8214;DHT22;4148;47.974;7.824;2023-02-15T14:27:43;7.80;99.90
8214;DHT22;4148;47.974;7.824;2023-02-15T14:30:23;7.90;99.90
8214;DHT22;4148;47.974;7.824;2023-02-15T14:32:59;7.90;99.90
8214;DHT22;4148;47.974;7.824;2023-02-15T14:35:30;7.90;99.90
8214;DHT22;4148;47.974;7.824;2023-02-15T14:38:04;8.00;99.90
8214;DHT22;4148;47.974;7.824;2023-02-15T14:40:43;8.00;99.90
8214;DHT22;4148;47.974;7.824;2023-02-15T14:43:37;8.00;99.90
8214;DHT22;4148;47.974;7.824;2023-02-15T14:46:20;8.10;99.90
8214;DHT22;4148;47.974;7.824;2023-02-15T14:48:52;8.10;99.90
8214;DHT22;4148;47.974;7.824;2023-02-15T14:51:55;8.10;99.90
8214;DHT22;4148;47.974;7.824;2023-02-15T14:54:59;8.10;99.90
8214;DHT22;4148;47.974;7.824;2023-02-15T14:57:42;8.10;99.90
8214;DHT22;4148;47.974;7.824;2023-02-15T15:00:33;8.20;99.90
8214;DHT22;4148;47.974;7.824;2023-02-15T15:03:11;8.20;99.90
8214;DHT22;4148;47.974;7.824;2023-02-15T15:05:48;8.30;99.90
8214;DHT22;4148;47.974;7.824;2023-02-15T15:08:31;8.30;99.90
8214;DHT22;4148;47.974;7.824;2023-02-15T15:11:36;8.30;99.90
8214;DHT22;4148;47.974;7.824;2023-02-15T15:16:53;8.30;99.90
8214;DHT22;4148;47.974;7.824;2023-02-15T15:19:59;8.40;99.90
8214;DHT22;4148;47.974;7.824;2023-02-15T15:22:29;8.40;99.90
8214;DHT22;4148;47.974;7.824;2023-02-15T15:24:58;8.40;99.90
8214;DHT22;4148;47.974;7.824;2023-02-15T15:27:44;8.40;99.90
8214;DHT22;4148;47.974;7.824;2023-02-15T15:36:57;8.40;99.90
8214;DHT22;4148;47.974;7.824;2023-02-15T15:42:34;8.40;99.90
8214;DHT22;4148;47.974;7.824;2023-02-15T15:45:26;8.40;99.90
8214;DHT22;4148;47.974;7.824;2023-02-15T15:50:59;8.20;99.90
8214;DHT22;4148;47.974;7.824;2023-02-15T15:53:31;8.10;99.90
8214;DHT22;4148;47.974;7.824;2023-02-15T15:56:04;8.10;99.90
8214;DHT22;4148;47.974;7.824;2023-02-15T15:58:33;8.00;99.90
8214;DHT22;4148;47.974;7.824;2023-02-15T16:01:05;8.00;99.90
8214;DHT22;4148;47.974;7.824;2023-02-15T16:03:35;7.90;99.90
8214;DHT22;4148;47.974;7.824;2023-02-15T16:06:03;7.70;99.90
8214;DHT22;4148;47.974;7.824;2023-02-15T16:08:35;7.60;99.90
8214;DHT22;4148;47.974;7.824;2023-02-15T16:11:12;7.50;99.90
8214;DHT22;4148;47.974;7.824;2023-02-15T16:13:40;7.40;99.90
8214;DHT22;4148;47.974;7.824;2023-02-15T16:16:11;7.30;99.90
8214;DHT22;4148;47.974;7.824;2023-02-15T16:18:40;7.20;99.90
8214;DHT22;4148;47.974;7.824;2023-02-15T16:21:15;7.10;99.90
8214;DHT22;4148;47.974;7.824;2023-02-15T16:24:10;7.00;99.90
8214;DHT22;4148;47.974;7.824;2023-02-15T16:29:33;6.60;99.90
8214;DHT22;4148;47.974;7.824;2023-02-15T16:32:03;6.50;99.90
8214;DHT22;4148;47.974;7.824;2023-02-15T16:34:32;6.30;99.90
8214;DHT22;4148;47.974;7.824;2023-02-15T16:37:13;6.20;99.90
8214;DHT22;4148;47.974;7.824;2023-02-15T16:39:44;6.00;99.90
8214;DHT22;4148;47.974;7.824;2023-02-15T16:42:13;5.90;99.90
8214;DHT22;4148;47.974;7.824;2023-02-15T16:44:43;5.80;99.90
8214;DHT22;4148;47.974;7.824;2023-02-15T16:47:16;5.70;99.90
8214;DHT22;4148;47.974;7.824;2023-02-15T16:49:46;5.60;99.90
8214;DHT22;4148;47.974;7.824;2023-02-15T16:52:19;5.60;99.90
8214;DHT22;4148;47.974;7.824;2023-02-15T16:54:53;5.40;99.90
8214;DHT22;4148;47.974;7.824;2023-02-15T16:57:24;5.40;99.90
8214;DHT22;4148;47.974;7.824;2023-02-15T16:59:55;5.50;99.90
8214;DHT22;4148;47.974;7.824;2023-02-15T17:02:25;5.50;99.90
8214;DHT22;4148;47.974;7.824;2023-02-15T17:05:16;5.40;99.90
8214;DHT22;4148;47.974;7.824;2023-02-15T17:08:04;5.40;99.90
8214;DHT22;4148;47.974;7.824;2023-02-15T17:10:35;5.20;99.90
8214;DHT22;4148;47.974;7.824;2023-02-15T17:13:05;5.00;99.90
8214;DHT22;4148;47.974;7.824;2023-02-15T17:15:38;4.90;99.90
8214;DHT22;4148;47.974;7.824;2023-02-15T17:18:12;4.90;99.90
8214;DHT22;4148;47.974;7.824;2023-02-15T17:20:43;4.70;99.90
8214;DHT22;4148;47.974;7.824;2023-02-15T17:23:28;4.60;99.90